createdAt,value
2023-09-17T00:00:39.887Z,20.24
2023-09-17T00:03:06.666Z,20.15
2023-09-17T00:05:33.412Z,20.22
2023-09-17T00:07:59.967Z,20.25
2023-09-17T00:10:27.131Z,20.31
2023-09-17T00:12:56.033Z,20.35
2023-09-17T00:15:24.075Z,20.25
2023-09-17T00:17:50.687Z,20.28
2023-09-17T00:20:17.339Z,20.34
2023-09-17T00:22:43.949Z,20.27
2023-09-17T00:25:11.345Z,20.19
2023-09-17T00:27:38.195Z,20.09
2023-09-17T00:30:05.188Z,20.20
2023-09-17T00:32:31.759Z,19.97
2023-09-17T00:34:58.366Z,20.14
2023-09-17T00:37:24.933Z,20.22
2023-09-17T00:39:51.637Z,20.14
2023-09-17T00:42:18.267Z,19.97
2023-09-17T00:44:44.832Z,20.03
2023-09-17T00:47:11.748Z,19.93
2023-09-17T00:49:38.562Z,19.78
2023-09-17T00:52:16.674Z,19.59
2023-09-17T00:54:45.610Z,19.77
2023-09-17T00:57:13.193Z,19.87
2023-09-17T00:59:40.421Z,19.95
2023-09-17T01:02:07.117Z,19.89
2023-09-17T01:04:34.220Z,20.06
2023-09-17T01:07:01.369Z,19.98
2023-09-17T01:09:29.866Z,19.94
2023-09-17T01:11:57.175Z,19.86
2023-09-17T01:14:23.832Z,19.75
2023-09-17T01:16:51.039Z,19.84
2023-09-17T01:19:25.308Z,19.88
2023-09-17T01:22:03.550Z,19.83
2023-09-17T01:24:44.190Z,19.61
2023-09-17T01:27:13.980Z,19.67
2023-09-17T01:29:42.725Z,19.80
2023-09-17T01:32:11.484Z,19.69
2023-09-17T01:34:41.259Z,19.57
2023-09-17T01:37:35.536Z,19.59
2023-09-17T01:40:12.386Z,19.59
2023-09-17T01:42:45.426Z,19.57
2023-09-17T01:45:17.749Z,19.65
2023-09-17T01:47:47.181Z,19.55
2023-09-17T01:50:17.071Z,19.65
2023-09-17T01:52:45.292Z,19.62
2023-09-17T01:55:13.385Z,19.51
2023-09-17T01:57:40.799Z,19.50
2023-09-17T02:00:15.881Z,19.50
2023-09-17T02:02:50.576Z,19.48
2023-09-17T02:05:18.408Z,19.50
2023-09-17T02:07:45.760Z,19.55
2023-09-17T02:10:13.056Z,19.41
2023-09-17T02:12:40.194Z,19.46
2023-09-17T02:15:07.639Z,19.37
2023-09-17T02:17:34.455Z,19.34
2023-09-17T02:20:01.093Z,19.42
2023-09-17T02:22:28.056Z,19.34
2023-09-17T02:24:55.062Z,19.24
2023-09-17T02:27:21.887Z,19.21
2023-09-17T02:29:48.545Z,19.13
2023-09-17T02:32:15.179Z,19.07
2023-09-17T02:34:41.993Z,19.04
2023-09-17T02:37:08.653Z,18.95
2023-09-17T02:39:36.615Z,18.89
2023-09-17T02:42:04.330Z,18.90
2023-09-17T02:44:30.910Z,18.96
2023-09-17T02:46:57.688Z,18.98
2023-09-17T02:49:24.866Z,18.96
2023-09-17T02:51:52.069Z,18.88
2023-09-17T02:54:18.678Z,18.85
2023-09-17T02:56:45.297Z,18.80
2023-09-17T02:59:12.331Z,18.72
2023-09-17T03:01:39.553Z,18.72
2023-09-17T03:04:06.793Z,18.67
2023-09-17T03:06:34.562Z,18.73
2023-09-17T03:09:02.416Z,18.82
2023-09-17T03:11:29.556Z,18.87
2023-09-17T03:14:00.540Z,18.89
2023-09-17T03:16:27.269Z,18.96
2023-09-17T03:18:53.906Z,18.95
2023-09-17T03:21:20.869Z,19.00
2023-09-17T03:23:47.469Z,18.97
2023-09-17T03:26:14.134Z,18.94
2023-09-17T03:28:40.797Z,18.89
2023-09-17T03:31:07.566Z,18.83
2023-09-17T03:33:37.218Z,18.82
2023-09-17T03:36:04.645Z,18.84
2023-09-17T03:38:31.467Z,18.80
2023-09-17T03:41:00.463Z,18.77
2023-09-17T03:43:28.588Z,18.52
2023-09-17T03:45:55.231Z,18.66
2023-09-17T03:48:22.837Z,18.67
2023-09-17T03:50:50.460Z,18.68
2023-09-17T03:53:17.572Z,18.69
2023-09-17T03:55:46.054Z,18.62
2023-09-17T03:58:13.438Z,18.61
2023-09-17T04:00:43.353Z,18.58
2023-09-17T04:03:10.159Z,18.67
2023-09-17T04:05:37.476Z,18.52
2023-09-17T04:08:04.474Z,18.53
2023-09-17T04:10:31.480Z,18.56
2023-09-17T04:12:58.131Z,18.62
2023-09-17T04:15:24.791Z,18.71
2023-09-17T04:17:52.435Z,18.68
2023-09-17T04:20:20.502Z,18.60
2023-09-17T04:22:50.198Z,18.53
2023-09-17T04:25:20.060Z,18.62
2023-09-17T04:27:48.846Z,18.55
2023-09-17T04:30:18.296Z,18.51
2023-09-17T04:32:47.225Z,18.57
2023-09-17T04:35:19.704Z,18.71
2023-09-17T04:37:49.678Z,18.85
2023-09-17T04:40:19.261Z,18.77
2023-09-17T04:42:49.973Z,18.87
2023-09-17T04:45:36.476Z,18.95
2023-09-17T04:48:10.442Z,18.87
2023-09-17T04:50:40.279Z,18.90
2023-09-17T04:53:07.155Z,18.91
2023-09-17T04:55:34.428Z,18.82
2023-09-17T04:58:01.337Z,18.85
2023-09-17T05:00:28.418Z,18.88
2023-09-17T05:02:55.626Z,18.70
2023-09-17T05:05:25.034Z,18.81
2023-09-17T05:07:53.610Z,18.80
2023-09-17T05:10:20.394Z,18.90
2023-09-17T05:12:47.210Z,18.93
2023-09-17T05:15:14.087Z,18.96
2023-09-17T05:17:42.045Z,19.00
2023-09-17T05:20:10.018Z,19.05
2023-09-17T05:22:37.245Z,19.10
2023-09-17T05:25:05.473Z,19.02
2023-09-17T05:27:32.616Z,19.09
2023-09-17T05:30:01.716Z,19.12
2023-09-17T05:32:29.742Z,19.26
2023-09-17T05:35:00.989Z,19.13
2023-09-17T05:37:28.296Z,19.18
2023-09-17T05:39:55.910Z,19.26
2023-09-17T05:42:22.545Z,19.33
2023-09-17T05:44:49.336Z,19.43
2023-09-17T05:47:15.976Z,19.16
2023-09-17T05:49:43.042Z,19.21
2023-09-17T05:52:09.815Z,19.31
2023-09-17T05:54:37.609Z,19.28
2023-09-17T05:57:04.468Z,19.33
2023-09-17T05:59:32.665Z,19.47
2023-09-17T06:02:00.434Z,19.54
2023-09-17T06:04:27.644Z,19.42
2023-09-17T06:06:55.415Z,19.37
2023-09-17T06:09:22.025Z,19.52
2023-09-17T06:11:51.152Z,19.57
2023-09-17T06:14:18.407Z,19.55
2023-09-17T06:16:56.553Z,19.52
2023-09-17T06:19:25.567Z,19.56
2023-09-17T06:21:53.364Z,19.55
2023-09-17T06:24:20.100Z,19.58
2023-09-17T06:26:46.846Z,19.71
2023-09-17T06:29:13.413Z,19.76
2023-09-17T06:31:41.329Z,19.68
2023-09-17T06:34:08.675Z,19.57
2023-09-17T06:36:40.066Z,19.59
2023-09-17T06:39:07.928Z,19.65
2023-09-17T06:41:38.040Z,19.62
2023-09-17T06:44:05.922Z,19.73
2023-09-17T06:46:33.205Z,19.84
2023-09-17T06:49:00.203Z,19.96
2023-09-17T06:51:26.913Z,20.09
2023-09-17T06:53:53.842Z,20.12
2023-09-17T06:56:20.887Z,20.24
2023-09-17T06:58:47.454Z,20.27
2023-09-17T07:01:14.095Z,20.36
2023-09-17T07:03:40.706Z,20.43
2023-09-17T07:06:07.372Z,20.51
2023-09-17T07:08:34.050Z,20.48
2023-09-17T07:11:01.869Z,20.59
2023-09-17T07:13:28.561Z,20.61
2023-09-17T07:15:55.114Z,20.75
2023-09-17T07:18:22.488Z,20.74
2023-09-17T07:20:50.978Z,20.72
2023-09-17T07:23:17.583Z,20.77
2023-09-17T07:25:45.935Z,20.83
2023-09-17T07:28:12.733Z,20.86
2023-09-17T07:30:39.747Z,20.84
2023-09-17T07:33:06.862Z,20.77
2023-09-17T07:35:34.350Z,20.85
2023-09-17T07:38:01.156Z,20.94
2023-09-17T07:40:28.403Z,20.97
2023-09-17T07:42:55.004Z,20.99
2023-09-17T07:45:21.585Z,20.99
2023-09-17T07:47:48.187Z,21.08
2023-09-17T07:50:14.811Z,21.16
2023-09-17T07:52:42.734Z,21.19
2023-09-17T07:55:10.501Z,21.07
2023-09-17T07:57:37.286Z,21.25
2023-09-17T08:00:05.584Z,21.28
2023-09-17T08:02:39.793Z,21.27
2023-09-17T08:05:08.386Z,21.30
2023-09-17T08:07:35.979Z,21.36
2023-09-17T08:10:04.704Z,21.35
2023-09-17T08:12:33.826Z,21.32
2023-09-17T08:15:00.535Z,21.25
2023-09-17T08:17:27.233Z,21.29
2023-09-17T08:19:55.396Z,21.26
2023-09-17T08:22:23.405Z,21.39
2023-09-17T08:24:50.008Z,21.25
2023-09-17T08:27:18.132Z,21.16
2023-09-17T08:29:45.017Z,21.41
2023-09-17T08:32:12.280Z,21.60
2023-09-17T08:34:38.976Z,21.69
2023-09-17T08:37:05.732Z,21.69
2023-09-17T08:39:32.647Z,21.87
2023-09-17T08:42:02.822Z,21.70
2023-09-17T08:44:32.096Z,21.99
2023-09-17T08:47:00.099Z,22.12
2023-09-17T08:49:26.860Z,22.31
2023-09-17T08:51:58.259Z,22.41
2023-09-17T08:54:38.462Z,22.61
2023-09-17T08:57:07.037Z,22.48
2023-09-17T09:02:08.746Z,22.63
2023-09-17T09:04:37.199Z,22.65
2023-09-17T09:07:05.470Z,22.80
2023-09-17T09:09:33.260Z,22.86
2023-09-17T09:12:00.169Z,22.88
2023-09-17T09:14:27.064Z,22.93
2023-09-17T09:16:53.825Z,23.03
2023-09-17T09:19:20.421Z,23.13
2023-09-17T09:21:46.996Z,23.24
2023-09-17T09:24:13.563Z,23.33
2023-09-17T09:26:41.255Z,23.56
2023-09-17T09:29:09.606Z,23.65
2023-09-17T09:31:36.662Z,23.76
2023-09-17T09:34:04.241Z,23.91
2023-09-17T09:36:35.581Z,23.98
2023-09-17T09:39:03.120Z,24.00
2023-09-17T09:41:34.490Z,24.13
2023-09-17T09:44:01.631Z,24.23
2023-09-17T09:46:29.967Z,24.16
2023-09-17T09:49:03.592Z,24.38
2023-09-17T09:51:32.450Z,24.43
2023-09-17T09:53:59.063Z,24.39
2023-09-17T09:56:29.684Z,24.48
2023-09-17T09:58:57.102Z,24.57
2023-09-17T10:01:24.069Z,24.50
2023-09-17T10:03:52.004Z,24.65
2023-09-17T10:06:19.225Z,24.90
2023-09-17T10:08:47.673Z,24.89
2023-09-17T10:11:15.846Z,24.63
2023-09-17T10:13:43.663Z,24.89
2023-09-17T10:16:10.806Z,25.10
2023-09-17T10:18:39.650Z,25.41
2023-09-17T10:21:06.817Z,25.56
2023-09-17T10:23:35.105Z,25.76
2023-09-17T10:26:04.338Z,25.89
2023-09-17T10:28:32.582Z,25.82
2023-09-17T10:31:01.037Z,25.94
2023-09-17T10:33:30.856Z,25.54
2023-09-17T10:36:00.471Z,25.81
2023-09-17T10:38:28.646Z,25.86
2023-09-17T10:40:57.593Z,26.14
2023-09-17T10:43:25.658Z,26.30
2023-09-17T10:45:56.118Z,26.06
2023-09-17T10:48:23.055Z,26.01
2023-09-17T10:50:50.564Z,26.31
2023-09-17T10:53:17.372Z,26.56
2023-09-17T10:55:54.291Z,26.35
2023-09-17T10:58:37.891Z,26.57
2023-09-17T11:01:07.755Z,26.69
2023-09-17T11:03:38.451Z,26.77
2023-09-17T11:06:15.113Z,27.01
2023-09-17T11:08:46.114Z,27.38
2023-09-17T11:11:42.050Z,27.39
2023-09-17T11:14:09.794Z,27.47
2023-09-17T11:16:37.656Z,27.68
2023-09-17T11:19:04.572Z,27.67
2023-09-17T11:21:31.170Z,27.66
2023-09-17T11:23:57.968Z,27.76
2023-09-17T11:26:28.357Z,28.11
2023-09-17T11:28:57.272Z,28.06
2023-09-17T11:31:27.641Z,28.14
2023-09-17T11:33:55.767Z,28.12
2023-09-17T11:36:22.749Z,27.82
2023-09-17T11:38:49.411Z,27.98
2023-09-17T11:41:17.501Z,27.97
2023-09-17T11:43:47.570Z,28.01
2023-09-17T11:46:15.224Z,28.04
2023-09-17T11:48:45.382Z,28.19
2023-09-17T11:51:20.981Z,28.00
2023-09-17T11:54:01.468Z,27.65
2023-09-17T11:56:31.440Z,27.70
2023-09-17T11:59:03.856Z,27.73
2023-09-17T12:01:44.717Z,28.10
2023-09-17T12:04:12.595Z,28.28
2023-09-17T12:06:42.302Z,28.48
2023-09-17T12:09:18.247Z,28.26
2023-09-17T12:11:50.061Z,28.02
2023-09-17T12:14:17.859Z,27.89
2023-09-17T12:16:47.351Z,28.13
2023-09-17T12:19:18.479Z,28.41
2023-09-17T12:21:48.106Z,28.36
2023-09-17T12:24:27.271Z,28.23
2023-09-17T12:27:07.138Z,28.33
2023-09-17T12:29:38.734Z,28.51
2023-09-17T12:32:06.389Z,28.47
2023-09-17T12:34:37.275Z,28.65
2023-09-17T12:37:06.210Z,28.67
2023-09-17T12:39:32.945Z,28.41
2023-09-17T12:41:59.506Z,28.20
2023-09-17T12:44:27.480Z,28.39
2023-09-17T12:46:54.655Z,28.65
2023-09-17T12:49:25.125Z,28.90
2023-09-17T12:51:54.817Z,29.07
2023-09-17T12:54:22.839Z,29.08
2023-09-17T12:56:51.055Z,29.14
2023-09-17T12:59:27.219Z,29.41
2023-09-17T13:01:55.084Z,29.64
2023-09-17T13:04:52.375Z,29.69
2023-09-17T13:07:21.730Z,29.44
2023-09-17T13:09:50.532Z,28.99
2023-09-17T13:12:18.709Z,28.91
2023-09-17T13:14:46.362Z,28.82
2023-09-17T13:17:13.211Z,29.29
2023-09-17T13:19:40.207Z,29.26
2023-09-17T13:22:07.031Z,28.92
2023-09-17T13:24:35.383Z,28.58
2023-09-17T13:27:04.521Z,28.57
2023-09-17T13:29:38.059Z,28.49
2023-09-17T13:32:12.726Z,28.54
2023-09-17T13:34:42.179Z,28.68
2023-09-17T13:37:09.996Z,28.82
2023-09-17T13:39:44.389Z,28.95
2023-09-17T13:42:11.527Z,29.13
2023-09-17T13:44:38.467Z,28.93
2023-09-17T13:47:21.587Z,29.23
2023-09-17T13:49:49.362Z,29.30
2023-09-17T13:52:16.043Z,29.34
2023-09-17T13:54:43.988Z,29.41
2023-09-17T13:57:11.228Z,29.51
2023-09-17T13:59:37.792Z,29.52
2023-09-17T14:02:05.213Z,29.62
2023-09-17T14:04:32.102Z,29.82
2023-09-17T14:06:58.949Z,29.81
2023-09-17T14:09:25.798Z,29.98
2023-09-17T14:11:52.574Z,29.64
2023-09-17T14:14:19.440Z,29.83
2023-09-17T14:16:47.363Z,29.68
2023-09-17T14:19:18.981Z,29.76
2023-09-17T14:21:46.720Z,29.80
2023-09-17T14:24:13.469Z,29.87
2023-09-17T14:26:40.414Z,29.89
2023-09-17T14:29:07.026Z,29.88
2023-09-17T14:31:33.789Z,30.05
2023-09-17T14:34:01.110Z,30.11
2023-09-17T14:36:27.806Z,30.18
2023-09-17T14:38:56.057Z,30.01
2023-09-17T14:41:22.764Z,30.19
2023-09-17T14:43:49.394Z,30.08
2023-09-17T14:46:15.974Z,30.18
2023-09-17T14:48:42.541Z,30.10
2023-09-17T14:51:10.257Z,30.04
2023-09-17T14:53:36.893Z,29.68
2023-09-17T14:56:03.543Z,29.90
2023-09-17T14:58:30.167Z,29.47
2023-09-17T15:00:56.819Z,29.50
2023-09-17T15:03:26.242Z,29.36
2023-09-17T15:05:53.130Z,29.31
2023-09-17T15:08:19.754Z,29.41
2023-09-17T15:10:46.559Z,29.51
2023-09-17T15:13:13.401Z,29.40
2023-09-17T15:15:40.607Z,29.28
2023-09-17T15:18:07.480Z,29.39
2023-09-17T15:20:35.202Z,29.23
2023-09-17T15:23:01.862Z,29.27
2023-09-17T15:25:28.513Z,29.17
2023-09-17T15:27:55.074Z,28.93
2023-09-17T15:30:23.154Z,28.83
2023-09-17T15:32:49.922Z,28.69
2023-09-17T15:35:21.110Z,28.60
2023-09-17T15:37:48.140Z,28.59
2023-09-17T15:40:15.006Z,28.43
2023-09-17T15:42:45.240Z,28.45
2023-09-17T15:45:12.776Z,28.26
2023-09-17T15:47:41.518Z,28.19
2023-09-17T15:50:11.719Z,28.18
2023-09-17T15:52:38.448Z,28.24
2023-09-17T15:55:05.675Z,28.19
2023-09-17T15:57:32.462Z,28.10
2023-09-17T15:59:59.619Z,28.13
2023-09-17T16:02:26.465Z,28.16
2023-09-17T16:04:53.410Z,28.14
2023-09-17T16:07:20.239Z,28.17
2023-09-17T16:09:46.958Z,28.26
2023-09-17T16:12:13.519Z,28.38
2023-09-17T16:14:40.092Z,28.34
2023-09-17T16:17:06.878Z,28.36
2023-09-17T16:19:44.859Z,28.42
2023-09-17T16:22:12.973Z,28.39
2023-09-17T16:24:39.546Z,28.41
2023-09-17T16:27:08.397Z,28.49
2023-09-17T16:29:35.008Z,28.47
2023-09-17T16:32:01.719Z,28.48
2023-09-17T16:34:28.488Z,28.37
2023-09-17T16:36:55.112Z,28.38
2023-09-17T16:39:21.725Z,28.35
2023-09-17T16:41:48.433Z,28.30
2023-09-17T16:44:15.099Z,28.24
2023-09-17T16:46:41.664Z,28.15
2023-09-17T16:49:08.367Z,28.10
2023-09-17T16:51:37.882Z,27.82
2023-09-17T16:54:04.731Z,27.86
2023-09-17T16:56:31.421Z,27.74
2023-09-17T16:59:02.763Z,27.63
2023-09-17T17:01:32.646Z,27.54
2023-09-17T17:03:59.413Z,27.41
2023-09-17T17:06:26.145Z,27.28
2023-09-17T17:08:54.678Z,27.18
2023-09-17T17:11:22.003Z,27.10
2023-09-17T17:13:48.777Z,26.98
2023-09-17T17:16:15.486Z,26.87
2023-09-17T17:18:42.170Z,26.76
2023-09-17T17:21:09.693Z,26.68
2023-09-17T17:23:37.204Z,26.52
2023-09-17T17:26:04.121Z,26.47
2023-09-17T17:28:30.779Z,26.44
2023-09-17T17:30:57.502Z,26.41
2023-09-17T17:33:24.305Z,26.34
2023-09-17T17:35:50.841Z,26.30
2023-09-17T17:38:17.812Z,26.13
2023-09-17T17:40:44.394Z,26.09
2023-09-17T17:43:10.985Z,26.04
2023-09-17T17:45:38.752Z,26.05
2023-09-17T17:48:06.100Z,26.04
2023-09-17T17:50:32.867Z,25.97
2023-09-17T17:52:59.609Z,25.89
2023-09-17T17:55:26.332Z,25.94
2023-09-17T17:57:53.032Z,25.89
2023-09-17T18:00:19.715Z,25.86
2023-09-17T18:02:48.421Z,25.80
2023-09-17T18:05:15.193Z,25.72
2023-09-17T18:07:43.845Z,25.63
2023-09-17T18:10:11.554Z,25.46
2023-09-17T18:12:39.867Z,25.43
2023-09-17T18:15:09.379Z,25.35
2023-09-17T18:17:37.065Z,25.24
2023-09-17T18:20:04.069Z,25.18
2023-09-17T18:22:31.348Z,25.17
2023-09-17T18:24:57.966Z,25.17
2023-09-17T18:27:25.270Z,25.12
2023-09-17T18:29:51.944Z,24.85
2023-09-17T18:32:19.365Z,24.66
2023-09-17T18:34:46.045Z,24.63
2023-09-17T18:37:12.687Z,24.62
2023-09-17T18:39:39.340Z,24.64
2023-09-17T18:42:06.337Z,24.53
2023-09-17T18:44:33.630Z,24.64
2023-09-17T18:47:00.246Z,24.66
2023-09-17T18:49:27.000Z,24.61
2023-09-17T18:51:54.556Z,24.57
2023-09-17T18:54:21.762Z,24.57
2023-09-17T18:56:48.501Z,24.61
2023-09-17T18:59:16.529Z,24.53
2023-09-17T19:01:43.355Z,24.51
2023-09-17T19:04:10.092Z,24.42
2023-09-17T19:06:37.240Z,24.33
2023-09-17T19:09:07.092Z,24.28
2023-09-17T19:11:34.849Z,24.22
2023-09-17T19:14:01.932Z,24.15
2023-09-17T19:16:29.059Z,24.12
2023-09-17T19:18:55.659Z,24.10
2023-09-17T19:21:23.840Z,24.17
2023-09-17T19:23:51.828Z,24.20
2023-09-17T19:26:20.830Z,24.16
2023-09-17T19:28:47.848Z,24.04
2023-09-17T19:31:14.562Z,24.01
2023-09-17T19:33:41.346Z,24.01
2023-09-17T19:36:08.048Z,23.99
2023-09-17T19:38:35.651Z,23.97
2023-09-17T19:41:03.205Z,23.85
2023-09-17T19:43:29.890Z,23.87
2023-09-17T19:45:57.952Z,23.82
2023-09-17T19:48:25.367Z,23.80
2023-09-17T19:50:52.042Z,23.71
2023-09-17T19:53:21.989Z,23.66
2023-09-17T19:55:48.661Z,23.52
2023-09-17T19:58:15.657Z,23.52
2023-09-17T20:00:42.840Z,23.54
2023-09-17T20:03:09.958Z,23.57
2023-09-17T20:05:37.073Z,23.46
2023-09-17T20:08:08.382Z,23.45
2023-09-17T20:10:37.748Z,23.36
2023-09-17T20:13:04.453Z,23.32
2023-09-17T20:15:31.079Z,23.28
2023-09-17T20:17:59.106Z,23.27
2023-09-17T20:20:27.049Z,23.25
2023-09-17T20:22:54.040Z,23.16
2023-09-17T20:25:22.738Z,23.10
2023-09-17T20:28:10.255Z,23.09
2023-09-17T20:30:40.381Z,23.03
2023-09-17T20:33:08.096Z,22.94
2023-09-17T20:35:37.819Z,22.91
2023-09-17T20:38:04.942Z,22.90
2023-09-17T20:40:31.672Z,22.81
2023-09-17T20:42:58.889Z,22.84
2023-09-17T20:45:25.626Z,22.83
2023-09-17T20:47:54.328Z,22.86
2023-09-17T20:50:21.338Z,22.84
2023-09-17T20:52:47.992Z,22.79
2023-09-17T20:55:14.589Z,22.60
2023-09-17T20:57:41.163Z,22.61
2023-09-17T21:00:08.665Z,22.61
2023-09-17T21:02:35.358Z,22.54
2023-09-17T21:05:03.441Z,22.47
2023-09-17T21:07:30.202Z,22.52
2023-09-17T21:09:57.681Z,22.51
2023-09-17T21:12:24.936Z,22.42
2023-09-17T21:14:52.031Z,22.37
2023-09-17T21:17:19.660Z,22.33
2023-09-17T21:19:46.717Z,22.30
2023-09-17T21:22:13.754Z,22.31
2023-09-17T21:24:40.317Z,22.33
2023-09-17T21:27:07.150Z,22.29
2023-09-17T21:29:36.764Z,22.31
2023-09-17T21:32:03.840Z,22.20
2023-09-17T21:34:30.784Z,22.15
2023-09-17T21:36:57.471Z,22.10
2023-09-17T21:39:32.416Z,22.02
2023-09-17T21:41:59.307Z,21.91
2023-09-17T21:44:26.225Z,21.86
2023-09-17T21:46:56.124Z,21.89
2023-09-17T21:49:23.055Z,21.89
2023-09-17T21:51:49.580Z,21.86
2023-09-17T21:54:16.232Z,21.81
2023-09-17T21:56:43.289Z,21.74
2023-09-17T21:59:10.291Z,21.80
2023-09-17T22:01:36.956Z,21.83
2023-09-17T22:04:04.133Z,21.75
2023-09-17T22:06:30.769Z,21.73
2023-09-17T22:08:57.357Z,21.70
2023-09-17T22:11:23.886Z,21.73
2023-09-17T22:13:50.645Z,21.73
2023-09-17T22:16:17.341Z,21.73
2023-09-17T22:18:43.947Z,21.70
2023-09-17T22:21:10.750Z,21.74
2023-09-17T22:23:37.664Z,21.66
2023-09-17T22:26:08.654Z,21.65
2023-09-17T22:28:35.834Z,21.70
2023-09-17T22:31:12.955Z,21.64
2023-09-17T22:33:41.283Z,21.64
2023-09-17T22:36:09.709Z,21.65
2023-09-17T22:38:39.535Z,21.64
2023-09-17T22:41:06.245Z,21.63
2023-09-17T22:43:32.850Z,21.53
2023-09-17T22:45:59.471Z,21.60
2023-09-17T22:48:26.411Z,21.57
2023-09-17T22:50:55.396Z,21.59
2023-09-17T22:53:22.133Z,21.54
2023-09-17T22:55:48.724Z,21.43
2023-09-17T22:58:15.288Z,21.40
2023-09-17T23:00:44.874Z,21.41
2023-09-17T23:03:11.711Z,21.41
2023-09-17T23:05:38.566Z,21.45
2023-09-17T23:08:05.454Z,21.53
2023-09-17T23:10:33.024Z,21.55
2023-09-17T23:12:59.567Z,21.48
2023-09-17T23:15:28.520Z,21.47
2023-09-17T23:17:55.164Z,21.40
2023-09-17T23:20:21.801Z,21.37
2023-09-17T23:22:48.455Z,21.30
2023-09-17T23:25:15.541Z,21.28
2023-09-17T23:27:42.218Z,21.28
2023-09-17T23:30:09.382Z,21.30
2023-09-17T23:32:36.145Z,21.27
2023-09-17T23:35:05.953Z,21.28
2023-09-17T23:37:32.973Z,21.29
2023-09-17T23:39:59.702Z,21.27
2023-09-17T23:42:26.353Z,21.29
2023-09-17T23:44:53.068Z,21.32
2023-09-17T23:47:19.730Z,21.22
2023-09-17T23:49:46.316Z,21.27
2023-09-17T23:52:12.996Z,21.15
2023-09-17T23:54:39.638Z,21.15
2023-09-17T23:57:06.464Z,21.23
2023-09-17T23:59:40.688Z,21.22
